KEWN/EWN METAR and TAF weather

Enter ICAO airport designator
Station Type Date Time Source
KEWN METAR 2019/06/16 03:54 UTC NOAA

KEWN 160354Z AUTO 00000KT 10SM CLR 18/16 A3014 RMK AO2 SLP204 T01780156


Station Type Date Time Source
KEWN Decoded METAR 2019/06/16 03:54 UTC NOAA

New Bern, Craven County Regional Airport, NC, United States (KEWN) 35-04-03N 077-02-50W 3M
Jun 15, 2019 - 11:54 PM EDT / 2019.06.16 0354 UTC
Wind: Calm:0
Visibility: 10 mile(s):0
Sky conditions: clear
Temperature: 64.0 F (17.8 C)
Dew Point: 60.1 F (15.6 C)
Relative Humidity: 86%
Pressure (altimeter): 30.14 in. Hg (1020 hPa)
ob: KEWN 160354Z AUTO 00000KT 10SM CLR 18/16 A3014 RMK AO2 SLP204 T01780156
cycle: 4

Station Type Date Time Source
KEWN TAF 2019/06/15 18:22 UTC NOAA

TAF KEWN 151720Z 1518/1618 17008G13KT P6SM SKC
FM152300 18007KT P6SM FEW250
FM160900 18004KT P6SM SCT025
FM161400 22008KT P6SM SKC

Example: see airport list